Airfield :
LOGIN :

Register | Disclaimer

   EN    FR    IT 

 










Legend :    VFR   Marginal VFR   IFR   Intensive IFR   Very Intensive IFR
Visi :
Ceiling :
>= 8 km
>= 3000ft
5 to 8 km
1000 to 3000 ft
1500m to 5 km
500 to 1000 ft
800 to 1500m
200 to 500 ft
< 800m
< 200 ft
Symbols :   Thunderstorms  Fog  Heavy snow  Heavy precipitations  Wind > 20 kt
SIGMETs :     Misc.  Thunderstorms  Icing  Turbulence  Mountain Waves  Volcanic Ashes







- Airport Elevation : 82 ft
- IATA code : ALG


DAAG - Alger Houari Boumedienne

CURRENT METAR :
  • 181830Z 08009KT CAVOK 13/08 Q1020

EXPIRED METARs :
  • 181800Z 07011KT CAVOK 13/08 Q1019
  • 181730Z 07010KT CAVOK 14/08 Q1019
  • 181700Z 07011KT CAVOK 16/09 Q1019
  • 181630Z 06013KT CAVOK 17/07 Q1018
  • 181600Z 07011KT CAVOK 18/07 Q1019

TAF TAF DAAG
Valid from the 18 at 18:00 until the 19 at 18:00 UTC


181700Z 1818/1918 06012KT CAVOK
BECMG 1820/1824 VRB02KT
BECMG 1909/1912 35012KT
No reported NOTAMs for that airfield.



MET'MAP, your aeronautical weather chart ! - Copyright ORBIFLY December 2007 - Disclaimer

ORBIFLY MET'MAP TEAM :

Programming & Development : Alexandra Zaïnal
Concept & Development : Baudouin d'Aumeries
Co-Development & Prog : Marc-Olivier Méhu
Technical & hardware support : Manuel Goepfert

Contact : metmap@orbifly.com




SOURCES & CREDITS :

   NOAA